sensor_id;sensor_type;location;lat;lon;timestamp;P1;durP1;ratioP1;P2;durP2;ratioP2
14394;SDS011;7282;49.204;10.652;2023-12-20T00:01:02;8.60;;;7.70;;
14394;SDS011;7282;49.204;10.652;2023-12-20T00:03:29;8.70;;;7.80;;
14394;SDS011;7282;49.204;10.652;2023-12-20T00:05:56;8.80;;;7.80;;
14394;SDS011;7282;49.204;10.652;2023-12-20T00:08:22;8.63;;;7.73;;
14394;SDS011;7282;49.204;10.652;2023-12-20T00:10:49;9.27;;;8.33;;
14394;SDS011;7282;49.204;10.652;2023-12-20T00:13:16;9.33;;;8.33;;
14394;SDS011;7282;49.204;10.652;2023-12-20T00:15:43;9.30;;;8.23;;
14394;SDS011;7282;49.204;10.652;2023-12-20T00:18:09;10.40;;;9.07;;
14394;SDS011;7282;49.204;10.652;2023-12-20T00:20:36;10.90;;;8.73;;
14394;SDS011;7282;49.204;10.652;2023-12-20T00:23:03;11.43;;;9.00;;
14394;SDS011;7282;49.204;10.652;2023-12-20T00:25:29;11.83;;;8.93;;
14394;SDS011;7282;49.204;10.652;2023-12-20T00:27:56;12.63;;;10.07;;
14394;SDS011;7282;49.204;10.652;2023-12-20T00:30:23;12.07;;;9.03;;
14394;SDS011;7282;49.204;10.652;2023-12-20T00:32:50;12.23;;;9.63;;
14394;SDS011;7282;49.204;10.652;2023-12-20T00:35:16;11.00;;;9.37;;
14394;SDS011;7282;49.204;10.652;2023-12-20T00:37:43;11.47;;;10.27;;
14394;SDS011;7282;49.204;10.652;2023-12-20T00:40:10;11.27;;;9.63;;
14394;SDS011;7282;49.204;10.652;2023-12-20T00:42:37;11.43;;;9.27;;
14394;SDS011;7282;49.204;10.652;2023-12-20T00:45:04;10.97;;;9.63;;
14394;SDS011;7282;49.204;10.652;2023-12-20T00:47:31;12.77;;;8.77;;
14394;SDS011;7282;49.204;10.652;2023-12-20T00:49:57;14.83;;;10.20;;
14394;SDS011;7282;49.204;10.652;2023-12-20T00:52:24;13.27;;;10.70;;
14394;SDS011;7282;49.204;10.652;2023-12-20T00:54:51;13.90;;;10.13;;
14394;SDS011;7282;49.204;10.652;2023-12-20T00:57:18;13.37;;;9.70;;
14394;SDS011;7282;49.204;10.652;2023-12-20T00:59:44;14.03;;;10.13;;
14394;SDS011;7282;49.204;10.652;2023-12-20T01:02:11;12.27;;;10.27;;
14394;SDS011;7282;49.204;10.652;2023-12-20T01:04:38;14.50;;;10.37;;
14394;SDS011;7282;49.204;10.652;2023-12-20T01:07:05;13.23;;;10.20;;
14394;SDS011;7282;49.204;10.652;2023-12-20T01:09:31;12.33;;;10.67;;
14394;SDS011;7282;49.204;10.652;2023-12-20T01:11:58;11.70;;;10.20;;
14394;SDS011;7282;49.204;10.652;2023-12-20T01:14:25;12.43;;;11.03;;
14394;SDS011;7282;49.204;10.652;2023-12-20T01:16:51;14.30;;;10.90;;
14394;SDS011;7282;49.204;10.652;2023-12-20T01:19:18;12.47;;;10.70;;
14394;SDS011;7282;49.204;10.652;2023-12-20T01:21:45;10.87;;;9.70;;
14394;SDS011;7282;49.204;10.652;2023-12-20T01:24:11;12.03;;;10.03;;
14394;SDS011;7282;49.204;10.652;2023-12-20T01:26:38;13.80;;;10.37;;
14394;SDS011;7282;49.204;10.652;2023-12-20T01:29:05;11.83;;;9.80;;
14394;SDS011;7282;49.204;10.652;2023-12-20T01:31:31;12.90;;;10.63;;
14394;SDS011;7282;49.204;10.652;2023-12-20T01:33:58;13.80;;;11.53;;
14394;SDS011;7282;49.204;10.652;2023-12-20T01:36:25;15.03;;;11.80;;
14394;SDS011;7282;49.204;10.652;2023-12-20T01:38:52;11.77;;;10.53;;
14394;SDS011;7282;49.204;10.652;2023-12-20T01:41:19;14.63;;;11.20;;
14394;SDS011;7282;49.204;10.652;2023-12-20T01:43:45;13.07;;;11.57;;
14394;SDS011;7282;49.204;10.652;2023-12-20T01:46:12;13.53;;;10.73;;
14394;SDS011;7282;49.204;10.652;2023-12-20T01:48:39;12.90;;;11.53;;
14394;SDS011;7282;49.204;10.652;2023-12-20T01:51:05;14.10;;;11.87;;
14394;SDS011;7282;49.204;10.652;2023-12-20T01:53:32;14.90;;;12.10;;
14394;SDS011;7282;49.204;10.652;2023-12-20T01:55:59;14.00;;;11.77;;
14394;SDS011;7282;49.204;10.652;2023-12-20T01:58:26;16.30;;;11.70;;
14394;SDS011;7282;49.204;10.652;2023-12-20T02:00:52;15.60;;;12.30;;
14394;SDS011;7282;49.204;10.652;2023-12-20T02:03:20;14.73;;;11.63;;
14394;SDS011;7282;49.204;10.652;2023-12-20T02:05:47;13.97;;;11.10;;
14394;SDS011;7282;49.204;10.652;2023-12-20T02:08:14;12.63;;;10.97;;
14394;SDS011;7282;49.204;10.652;2023-12-20T02:10:41;11.40;;;9.93;;
14394;SDS011;7282;49.204;10.652;2023-12-20T02:13:08;12.60;;;10.77;;
14394;SDS011;7282;49.204;10.652;2023-12-20T02:15:34;11.20;;;9.70;;
14394;SDS011;7282;49.204;10.652;2023-12-20T02:18:03;11.13;;;9.97;;
14394;SDS011;7282;49.204;10.652;2023-12-20T02:20:30;11.20;;;9.30;;
14394;SDS011;7282;49.204;10.652;2023-12-20T02:22:57;9.63;;;8.50;;
14394;SDS011;7282;49.204;10.652;2023-12-20T02:25:23;10.17;;;8.63;;
14394;SDS011;7282;49.204;10.652;2023-12-20T02:27:50;8.63;;;7.50;;
14394;SDS011;7282;49.204;10.652;2023-12-20T02:30:17;8.00;;;7.20;;
14394;SDS011;7282;49.204;10.652;2023-12-20T02:32:43;7.93;;;7.13;;
14394;SDS011;7282;49.204;10.652;2023-12-20T02:35:10;7.87;;;6.30;;
14394;SDS011;7282;49.204;10.652;2023-12-20T02:37:37;6.80;;;6.20;;
14394;SDS011;7282;49.204;10.652;2023-12-20T02:40:04;6.10;;;5.50;;
14394;SDS011;7282;49.204;10.652;2023-12-20T02:42:30;7.00;;;5.30;;
14394;SDS011;7282;49.204;10.652;2023-12-20T02:44:57;6.30;;;5.30;;
14394;SDS011;7282;49.204;10.652;2023-12-20T02:47:24;5.90;;;5.30;;
14394;SDS011;7282;49.204;10.652;2023-12-20T02:49:50;6.67;;;5.47;;
14394;SDS011;7282;49.204;10.652;2023-12-20T02:52:18;6.00;;;5.40;;
14394;SDS011;7282;49.204;10.652;2023-12-20T02:54:45;6.83;;;5.80;;
14394;SDS011;7282;49.204;10.652;2023-12-20T02:57:12;6.27;;;5.67;;
14394;SDS011;7282;49.204;10.652;2023-12-20T02:59:39;6.00;;;5.43;;
14394;SDS011;7282;49.204;10.652;2023-12-20T03:02:05;6.50;;;5.80;;
14394;SDS011;7282;49.204;10.652;2023-12-20T03:04:32;6.63;;;5.57;;
14394;SDS011;7282;49.204;10.652;2023-12-20T03:06:59;6.13;;;5.53;;
14394;SDS011;7282;49.204;10.652;2023-12-20T03:09:25;6.43;;;5.83;;
14394;SDS011;7282;49.204;10.652;2023-12-20T03:11:52;6.03;;;5.30;;
14394;SDS011;7282;49.204;10.652;2023-12-20T03:14:19;6.30;;;5.70;;
14394;SDS011;7282;49.204;10.652;2023-12-20T03:16:51;6.73;;;5.80;;
14394;SDS011;7282;49.204;10.652;2023-12-20T03:19:18;7.27;;;5.90;;
14394;SDS011;7282;49.204;10.652;2023-12-20T03:21:47;7.27;;;6.27;;
14394;SDS011;7282;49.204;10.652;2023-12-20T03:24:14;6.23;;;5.63;;
14394;SDS011;7282;49.204;10.652;2023-12-20T03:26:41;7.03;;;6.33;;
14394;SDS011;7282;49.204;10.652;2023-12-20T03:29:07;6.53;;;5.93;;
14394;SDS011;7282;49.204;10.652;2023-12-20T03:31:34;6.67;;;5.97;;
14394;SDS011;7282;49.204;10.652;2023-12-20T03:34:01;6.70;;;5.93;;
14394;SDS011;7282;49.204;10.652;2023-12-20T03:36:28;6.20;;;5.33;;
14394;SDS011;7282;49.204;10.652;2023-12-20T03:38:54;6.07;;;5.47;;
14394;SDS011;7282;49.204;10.652;2023-12-20T03:41:21;5.00;;;4.50;;
14394;SDS011;7282;49.204;10.652;2023-12-20T03:43:48;5.60;;;5.00;;
14394;SDS011;7282;49.204;10.652;2023-12-20T03:46:14;4.80;;;4.30;;
14394;SDS011;7282;49.204;10.652;2023-12-20T03:48:41;4.27;;;3.87;;
14394;SDS011;7282;49.204;10.652;2023-12-20T03:51:08;4.67;;;4.27;;
14394;SDS011;7282;49.204;10.652;2023-12-20T03:53:34;4.30;;;3.90;;
14394;SDS011;7282;49.204;10.652;2023-12-20T03:56:01;5.07;;;3.57;;
14394;SDS011;7282;49.204;10.652;2023-12-20T03:58:28;4.17;;;3.77;;
14394;SDS011;7282;49.204;10.652;2023-12-20T04:00:54;4.33;;;3.90;;
14394;SDS011;7282;49.204;10.652;2023-12-20T04:03:21;4.30;;;3.83;;
14394;SDS011;7282;49.204;10.652;2023-12-20T04:05:53;4.00;;;3.60;;
14394;SDS011;7282;49.204;10.652;2023-12-20T04:08:17;3.57;;;3.27;;
14394;SDS011;7282;49.204;10.652;2023-12-20T04:10:43;3.73;;;3.43;;
14394;SDS011;7282;49.204;10.652;2023-12-20T04:13:10;3.03;;;2.80;;
14394;SDS011;7282;49.204;10.652;2023-12-20T04:15:37;3.77;;;2.90;;
14394;SDS011;7282;49.204;10.652;2023-12-20T04:18:04;3.40;;;3.10;;
14394;SDS011;7282;49.204;10.652;2023-12-20T04:20:31;3.10;;;2.90;;
14394;SDS011;7282;49.204;10.652;2023-12-20T04:22:57;3.40;;;3.10;;
14394;SDS011;7282;49.204;10.652;2023-12-20T04:25:29;3.20;;;2.90;;
14394;SDS011;7282;49.204;10.652;2023-12-20T04:27:53;3.10;;;2.80;;
14394;SDS011;7282;49.204;10.652;2023-12-20T04:30:19;3.23;;;2.90;;
14394;SDS011;7282;49.204;10.652;2023-12-20T04:32:46;2.80;;;2.60;;
14394;SDS011;7282;49.204;10.652;2023-12-20T04:35:13;2.93;;;2.63;;
14394;SDS011;7282;49.204;10.652;2023-12-20T04:37:40;2.70;;;2.40;;
14394;SDS011;7282;49.204;10.652;2023-12-20T04:40:07;2.80;;;2.60;;
14394;SDS011;7282;49.204;10.652;2023-12-20T04:42:34;2.83;;;2.53;;
14394;SDS011;7282;49.204;10.652;2023-12-20T04:45:01;1.90;;;1.80;;
14394;SDS011;7282;49.204;10.652;2023-12-20T04:47:27;2.70;;;2.50;;
14394;SDS011;7282;49.204;10.652;2023-12-20T04:49:54;2.80;;;2.60;;
14394;SDS011;7282;49.204;10.652;2023-12-20T04:52:21;2.40;;;2.20;;
14394;SDS011;7282;49.204;10.652;2023-12-20T04:54:47;3.20;;;2.50;;
14394;SDS011;7282;49.204;10.652;2023-12-20T04:57:14;3.00;;;2.70;;
14394;SDS011;7282;49.204;10.652;2023-12-20T04:59:41;2.90;;;2.60;;
14394;SDS011;7282;49.204;10.652;2023-12-20T05:02:07;4.13;;;2.97;;
14394;SDS011;7282;49.204;10.652;2023-12-20T05:04:34;3.70;;;3.40;;
14394;SDS011;7282;49.204;10.652;2023-12-20T05:07:01;3.83;;;3.53;;
14394;SDS011;7282;49.204;10.652;2023-12-20T05:09:28;3.73;;;3.33;;
14394;SDS011;7282;49.204;10.652;2023-12-20T05:11:54;3.13;;;2.70;;
14394;SDS011;7282;49.204;10.652;2023-12-20T05:14:21;4.70;;;3.90;;
14394;SDS011;7282;49.204;10.652;2023-12-20T05:16:48;3.87;;;3.33;;
14394;SDS011;7282;49.204;10.652;2023-12-20T05:19:14;3.47;;;3.20;;
14394;SDS011;7282;49.204;10.652;2023-12-20T05:21:41;3.70;;;3.40;;
14394;SDS011;7282;49.204;10.652;2023-12-20T05:24:08;3.93;;;3.57;;
14394;SDS011;7282;49.204;10.652;2023-12-20T05:26:35;3.73;;;3.43;;
14394;SDS011;7282;49.204;10.652;2023-12-20T05:29:01;4.27;;;3.87;;
14394;SDS011;7282;49.204;10.652;2023-12-20T05:31:28;4.63;;;4.23;;
14394;SDS011;7282;49.204;10.652;2023-12-20T05:33:55;4.30;;;3.90;;
14394;SDS011;7282;49.204;10.652;2023-12-20T05:36:21;4.40;;;4.00;;
14394;SDS011;7282;49.204;10.652;2023-12-20T05:38:48;5.33;;;4.23;;
14394;SDS011;7282;49.204;10.652;2023-12-20T05:41:15;4.07;;;3.67;;
14394;SDS011;7282;49.204;10.652;2023-12-20T05:43:43;4.13;;;3.73;;
14394;SDS011;7282;49.204;10.652;2023-12-20T05:46:10;5.23;;;3.80;;
14394;SDS011;7282;49.204;10.652;2023-12-20T05:48:38;4.53;;;4.13;;
14394;SDS011;7282;49.204;10.652;2023-12-20T05:51:05;5.03;;;4.53;;
14394;SDS011;7282;49.204;10.652;2023-12-20T05:53:31;5.53;;;4.77;;
14394;SDS011;7282;49.204;10.652;2023-12-20T05:55:58;5.50;;;5.00;;
14394;SDS011;7282;49.204;10.652;2023-12-20T05:58:25;5.17;;;4.67;;
14394;SDS011;7282;49.204;10.652;2023-12-20T06:00:52;5.50;;;5.00;;
14394;SDS011;7282;49.204;10.652;2023-12-20T06:03:19;5.53;;;5.03;;
14394;SDS011;7282;49.204;10.652;2023-12-20T06:05:45;5.70;;;5.10;;
14394;SDS011;7282;49.204;10.652;2023-12-20T06:08:12;6.10;;;5.50;;
14394;SDS011;7282;49.204;10.652;2023-12-20T06:10:39;8.73;;;6.40;;
14394;SDS011;7282;49.204;10.652;2023-12-20T06:13:06;7.40;;;6.53;;
14394;SDS011;7282;49.204;10.652;2023-12-20T06:15:33;8.07;;;7.27;;
14394;SDS011;7282;49.204;10.652;2023-12-20T06:17:59;9.93;;;8.90;;
14394;SDS011;7282;49.204;10.652;2023-12-20T06:20:26;8.83;;;7.93;;
14394;SDS011;7282;49.204;10.652;2023-12-20T06:22:53;9.93;;;8.90;;
14394;SDS011;7282;49.204;10.652;2023-12-20T06:25:19;9.97;;;8.70;;
14394;SDS011;7282;49.204;10.652;2023-12-20T06:27:46;12.13;;;10.30;;
14394;SDS011;7282;49.204;10.652;2023-12-20T06:30:13;13.07;;;10.20;;
14394;SDS011;7282;49.204;10.652;2023-12-20T06:32:40;12.80;;;10.70;;
14394;SDS011;7282;49.204;10.652;2023-12-20T06:35:11;11.50;;;10.00;;
14394;SDS011;7282;49.204;10.652;2023-12-20T06:37:37;12.17;;;10.83;;
14394;SDS011;7282;49.204;10.652;2023-12-20T06:40:06;15.20;;;12.37;;
14394;SDS011;7282;49.204;10.652;2023-12-20T06:42:33;15.50;;;11.90;;
14394;SDS011;7282;49.204;10.652;2023-12-20T06:45:00;12.53;;;11.23;;
14394;SDS011;7282;49.204;10.652;2023-12-20T06:47:27;14.27;;;10.50;;
14394;SDS011;7282;49.204;10.652;2023-12-20T06:49:53;13.30;;;11.27;;
14394;SDS011;7282;49.204;10.652;2023-12-20T06:52:20;11.40;;;9.67;;
14394;SDS011;7282;49.204;10.652;2023-12-20T06:54:47;12.83;;;10.73;;
14394;SDS011;7282;49.204;10.652;2023-12-20T06:57:14;9.90;;;8.90;;
14394;SDS011;7282;49.204;10.652;2023-12-20T06:59:40;9.70;;;8.57;;
14394;SDS011;7282;49.204;10.652;2023-12-20T07:02:08;12.67;;;10.23;;
14394;SDS011;7282;49.204;10.652;2023-12-20T07:04:38;10.13;;;9.10;;
14394;SDS011;7282;49.204;10.652;2023-12-20T07:07:03;10.40;;;9.17;;
14394;SDS011;7282;49.204;10.652;2023-12-20T07:09:30;9.00;;;8.10;;
14394;SDS011;7282;49.204;10.652;2023-12-20T07:11:57;8.93;;;8.03;;
14394;SDS011;7282;49.204;10.652;2023-12-20T07:14:24;9.80;;;8.07;;
14394;SDS011;7282;49.204;10.652;2023-12-20T07:16:51;9.00;;;8.10;;
14394;SDS011;7282;49.204;10.652;2023-12-20T07:19:18;9.10;;;7.97;;
14394;SDS011;7282;49.204;10.652;2023-12-20T07:21:44;9.40;;;8.40;;
14394;SDS011;7282;49.204;10.652;2023-12-20T07:24:11;9.77;;;8.50;;
14394;SDS011;7282;49.204;10.652;2023-12-20T07:26:38;10.43;;;9.30;;
14394;SDS011;7282;49.204;10.652;2023-12-20T07:31:58;13.57;;;11.20;;
14394;SDS011;7282;49.204;10.652;2023-12-20T07:34:25;17.07;;;11.97;;
14394;SDS011;7282;49.204;10.652;2023-12-20T07:36:51;15.07;;;12.97;;
14394;SDS011;7282;49.204;10.652;2023-12-20T07:39:18;19.17;;;13.30;;
14394;SDS011;7282;49.204;10.652;2023-12-20T07:41:45;15.17;;;12.77;;
14394;SDS011;7282;49.204;10.652;2023-12-20T07:44:12;16.83;;;14.03;;
14394;SDS011;7282;49.204;10.652;2023-12-20T07:46:38;15.87;;;13.97;;
14394;SDS011;7282;49.204;10.652;2023-12-20T07:49:05;16.17;;;13.23;;
14394;SDS011;7282;49.204;10.652;2023-12-20T07:51:32;15.50;;;13.10;;
14394;SDS011;7282;49.204;10.652;2023-12-20T07:53:58;15.53;;;13.33;;
14394;SDS011;7282;49.204;10.652;2023-12-20T07:56:25;15.27;;;13.03;;
14394;SDS011;7282;49.204;10.652;2023-12-20T07:58:52;14.23;;;12.33;;
14394;SDS011;7282;49.204;10.652;2023-12-20T08:01:18;15.77;;;13.20;;
14394;SDS011;7282;49.204;10.652;2023-12-20T08:03:45;15.17;;;12.40;;
14394;SDS011;7282;49.204;10.652;2023-12-20T08:06:12;16.80;;;13.10;;
14394;SDS011;7282;49.204;10.652;2023-12-20T08:08:39;16.87;;;13.73;;
14394;SDS011;7282;49.204;10.652;2023-12-20T08:11:05;17.03;;;14.07;;
14394;SDS011;7282;49.204;10.652;2023-12-20T08:13:32;17.80;;;14.47;;
14394;SDS011;7282;49.204;10.652;2023-12-20T08:15:59;18.83;;;15.00;;
14394;SDS011;7282;49.204;10.652;2023-12-20T08:18:26;17.47;;;13.90;;
14394;SDS011;7282;49.204;10.652;2023-12-20T08:20:52;16.07;;;13.47;;
14394;SDS011;7282;49.204;10.652;2023-12-20T08:23:20;17.07;;;14.60;;
14394;SDS011;7282;49.204;10.652;2023-12-20T08:25:49;15.40;;;13.03;;
14394;SDS011;7282;49.204;10.652;2023-12-20T08:28:16;16.10;;;13.57;;
14394;SDS011;7282;49.204;10.652;2023-12-20T08:30:43;16.23;;;14.53;;
14394;SDS011;7282;49.204;10.652;2023-12-20T08:33:09;16.67;;;14.77;;
14394;SDS011;7282;49.204;10.652;2023-12-20T08:35:39;14.47;;;12.90;;
14394;SDS011;7282;49.204;10.652;2023-12-20T08:38:06;13.67;;;12.27;;
14394;SDS011;7282;49.204;10.652;2023-12-20T08:40:33;13.67;;;11.60;;
14394;SDS011;7282;49.204;10.652;2023-12-20T08:42:59;13.20;;;11.80;;
14394;SDS011;7282;49.204;10.652;2023-12-20T08:45:26;13.27;;;11.80;;
14394;SDS011;7282;49.204;10.652;2023-12-20T08:47:53;12.43;;;11.17;;
14394;SDS011;7282;49.204;10.652;2023-12-20T08:50:19;12.07;;;10.87;;
14394;SDS011;7282;49.204;10.652;2023-12-20T08:52:46;11.43;;;9.97;;
14394;SDS011;7282;49.204;10.652;2023-12-20T08:55:16;12.60;;;9.77;;
14394;SDS011;7282;49.204;10.652;2023-12-20T08:57:44;10.50;;;9.50;;
14394;SDS011;7282;49.204;10.652;2023-12-20T09:00:11;10.10;;;9.10;;
14394;SDS011;7282;49.204;10.652;2023-12-20T09:02:37;9.90;;;6.77;;
14394;SDS011;7282;49.204;10.652;2023-12-20T09:05:05;7.63;;;6.93;;
14394;SDS011;7282;49.204;10.652;2023-12-20T09:07:31;9.20;;;6.83;;
14394;SDS011;7282;49.204;10.652;2023-12-20T09:09:58;7.90;;;7.10;;
14394;SDS011;7282;49.204;10.652;2023-12-20T09:12:25;8.83;;;6.67;;
14394;SDS011;7282;49.204;10.652;2023-12-20T09:14:52;7.10;;;6.40;;
14394;SDS011;7282;49.204;10.652;2023-12-20T09:17:18;9.43;;;7.10;;
14394;SDS011;7282;49.204;10.652;2023-12-20T09:19:46;9.93;;;6.77;;
14394;SDS011;7282;49.204;10.652;2023-12-20T09:22:13;7.23;;;6.53;;
14394;SDS011;7282;49.204;10.652;2023-12-20T09:24:40;7.67;;;6.40;;
14394;SDS011;7282;49.204;10.652;2023-12-20T09:27:06;9.50;;;6.27;;
14394;SDS011;7282;49.204;10.652;2023-12-20T09:29:33;9.50;;;6.17;;
14394;SDS011;7282;49.204;10.652;2023-12-20T09:32:00;7.20;;;6.30;;
14394;SDS011;7282;49.204;10.652;2023-12-20T09:34:26;10.43;;;6.97;;
14394;SDS011;7282;49.204;10.652;2023-12-20T09:36:53;8.90;;;7.83;;
14394;SDS011;7282;49.204;10.652;2023-12-20T09:39:20;7.53;;;6.80;;
14394;SDS011;7282;49.204;10.652;2023-12-20T09:42:03;8.53;;;6.07;;
14394;SDS011;7282;49.204;10.652;2023-12-20T09:44:30;7.20;;;5.73;;
14394;SDS011;7282;49.204;10.652;2023-12-20T09:46:57;6.73;;;4.57;;
14394;SDS011;7282;49.204;10.652;2023-12-20T09:49:24;7.43;;;4.50;;
14394;SDS011;7282;49.204;10.652;2023-12-20T09:51:53;6.37;;;4.70;;
14394;SDS011;7282;49.204;10.652;2023-12-20T09:54:20;5.83;;;4.10;;
14394;SDS011;7282;49.204;10.652;2023-12-20T09:56:47;5.10;;;4.00;;
14394;SDS011;7282;49.204;10.652;2023-12-20T09:59:14;4.70;;;3.80;;
14394;SDS011;7282;49.204;10.652;2023-12-20T10:01:41;5.17;;;3.20;;
14394;SDS011;7282;49.204;10.652;2023-12-20T10:04:09;3.70;;;3.00;;
14394;SDS011;7282;49.204;10.652;2023-12-20T10:06:41;4.53;;;3.00;;
14394;SDS011;7282;49.204;10.652;2023-12-20T10:09:08;5.57;;;3.57;;
14394;SDS011;7282;49.204;10.652;2023-12-20T10:11:36;5.63;;;3.93;;
14394;SDS011;7282;49.204;10.652;2023-12-20T10:14:05;6.47;;;3.90;;
14394;SDS011;7282;49.204;10.652;2023-12-20T10:16:32;6.57;;;3.23;;
14394;SDS011;7282;49.204;10.652;2023-12-20T10:19:00;4.27;;;3.33;;
14394;SDS011;7282;49.204;10.652;2023-12-20T10:21:28;4.30;;;3.60;;
14394;SDS011;7282;49.204;10.652;2023-12-20T10:23:55;5.70;;;4.10;;
14394;SDS011;7282;49.204;10.652;2023-12-20T10:26:24;5.77;;;4.20;;
14394;SDS011;7282;49.204;10.652;2023-12-20T10:28:51;4.60;;;3.90;;
14394;SDS011;7282;49.204;10.652;2023-12-20T10:31:33;5.13;;;4.40;;
14394;SDS011;7282;49.204;10.652;2023-12-20T10:33:57;5.33;;;4.83;;
14394;SDS011;7282;49.204;10.652;2023-12-20T10:36:32;6.73;;;4.63;;
14394;SDS011;7282;49.204;10.652;2023-12-20T10:38:56;9.00;;;4.87;;
14394;SDS011;7282;49.204;10.652;2023-12-20T10:41:28;6.30;;;5.27;;
14394;SDS011;7282;49.204;10.652;2023-12-20T10:43:59;6.80;;;4.70;;
14394;SDS011;7282;49.204;10.652;2023-12-20T10:46:23;7.53;;;4.33;;
14394;SDS011;7282;49.204;10.652;2023-12-20T10:49:00;7.80;;;4.40;;
14394;SDS011;7282;49.204;10.652;2023-12-20T10:51:24;7.33;;;4.70;;
14394;SDS011;7282;49.204;10.652;2023-12-20T10:53:52;4.70;;;4.20;;
14394;SDS011;7282;49.204;10.652;2023-12-20T10:56:20;6.63;;;5.13;;
14394;SDS011;7282;49.204;10.652;2023-12-20T10:58:49;4.70;;;4.30;;
14394;SDS011;7282;49.204;10.652;2023-12-20T11:01:17;5.97;;;5.00;;
14394;SDS011;7282;49.204;10.652;2023-12-20T11:03:46;6.80;;;4.83;;
14394;SDS011;7282;49.204;10.652;2023-12-20T11:08:46;7.73;;;4.57;;
14394;SDS011;7282;49.204;10.652;2023-12-20T11:11:13;5.50;;;4.57;;
14394;SDS011;7282;49.204;10.652;2023-12-20T11:13:48;5.00;;;4.23;;
14394;SDS011;7282;49.204;10.652;2023-12-20T11:16:10;7.00;;;3.93;;
14394;SDS011;7282;49.204;10.652;2023-12-20T11:18:37;5.97;;;4.20;;
14394;SDS011;7282;49.204;10.652;2023-12-20T11:21:06;5.03;;;4.53;;
14394;SDS011;7282;49.204;10.652;2023-12-20T11:23:33;6.97;;;4.30;;
14394;SDS011;7282;49.204;10.652;2023-12-20T11:26:00;5.60;;;4.13;;
14394;SDS011;7282;49.204;10.652;2023-12-20T11:28:27;6.23;;;4.20;;
14394;SDS011;7282;49.204;10.652;2023-12-20T11:30:56;6.80;;;4.07;;
14394;SDS011;7282;49.204;10.652;2023-12-20T11:33:26;4.70;;;3.87;;
14394;SDS011;7282;49.204;10.652;2023-12-20T11:35:55;7.23;;;4.10;;
14394;SDS011;7282;49.204;10.652;2023-12-20T11:38:21;8.10;;;3.83;;
14394;SDS011;7282;49.204;10.652;2023-12-20T11:40:49;5.80;;;3.80;;
14394;SDS011;7282;49.204;10.652;2023-12-20T11:43:32;4.17;;;3.13;;
14394;SDS011;7282;49.204;10.652;2023-12-20T11:46:06;7.03;;;3.87;;
14394;SDS011;7282;49.204;10.652;2023-12-20T11:48:37;6.23;;;3.23;;
14394;SDS011;7282;49.204;10.652;2023-12-20T11:51:10;6.63;;;4.80;;
14394;SDS011;7282;49.204;10.652;2023-12-20T11:53:37;5.33;;;3.53;;
14394;SDS011;7282;49.204;10.652;2023-12-20T11:56:09;6.03;;;3.43;;
14394;SDS011;7282;49.204;10.652;2023-12-20T11:58:38;6.77;;;3.27;;
14394;SDS011;7282;49.204;10.652;2023-12-20T12:01:01;6.97;;;3.43;;
14394;SDS011;7282;49.204;10.652;2023-12-20T12:03:28;6.60;;;3.87;;
14394;SDS011;7282;49.204;10.652;2023-12-20T12:05:55;7.03;;;3.50;;
14394;SDS011;7282;49.204;10.652;2023-12-20T12:08:22;5.80;;;3.23;;
14394;SDS011;7282;49.204;10.652;2023-12-20T12:10:48;6.70;;;3.53;;
14394;SDS011;7282;49.204;10.652;2023-12-20T12:13:15;7.50;;;3.63;;
14394;SDS011;7282;49.204;10.652;2023-12-20T12:15:42;6.17;;;3.27;;
14394;SDS011;7282;49.204;10.652;2023-12-20T12:18:09;5.83;;;3.67;;
14394;SDS011;7282;49.204;10.652;2023-12-20T12:20:36;5.83;;;3.33;;
14394;SDS011;7282;49.204;10.652;2023-12-20T12:23:04;4.57;;;3.00;;
14394;SDS011;7282;49.204;10.652;2023-12-20T12:25:32;4.97;;;3.77;;
14394;SDS011;7282;49.204;10.652;2023-12-20T12:27:59;3.97;;;3.20;;
14394;SDS011;7282;49.204;10.652;2023-12-20T12:30:26;7.07;;;3.73;;
14394;SDS011;7282;49.204;10.652;2023-12-20T12:32:53;6.73;;;3.50;;
14394;SDS011;7282;49.204;10.652;2023-12-20T12:35:19;7.70;;;4.50;;
14394;SDS011;7282;49.204;10.652;2023-12-20T12:37:46;9.13;;;5.27;;
14394;SDS011;7282;49.204;10.652;2023-12-20T12:40:13;6.10;;;4.00;;
14394;SDS011;7282;49.204;10.652;2023-12-20T12:42:41;7.00;;;4.00;;
14394;SDS011;7282;49.204;10.652;2023-12-20T12:45:08;5.93;;;3.53;;
14394;SDS011;7282;49.204;10.652;2023-12-20T12:47:37;4.57;;;3.70;;
14394;SDS011;7282;49.204;10.652;2023-12-20T12:50:04;5.27;;;3.50;;
14394;SDS011;7282;49.204;10.652;2023-12-20T12:52:31;7.93;;;4.00;;
14394;SDS011;7282;49.204;10.652;2023-12-20T12:54:57;6.53;;;4.17;;
14394;SDS011;7282;49.204;10.652;2023-12-20T12:57:24;6.77;;;3.80;;
14394;SDS011;7282;49.204;10.652;2023-12-20T12:59:51;4.20;;;3.67;;
14394;SDS011;7282;49.204;10.652;2023-12-20T13:02:17;5.00;;;3.30;;
14394;SDS011;7282;49.204;10.652;2023-12-20T13:04:44;7.50;;;3.50;;
14394;SDS011;7282;49.204;10.652;2023-12-20T13:07:11;4.80;;;3.33;;
14394;SDS011;7282;49.204;10.652;2023-12-20T13:09:39;5.27;;;2.97;;
14394;SDS011;7282;49.204;10.652;2023-12-20T13:12:06;5.13;;;3.67;;
14394;SDS011;7282;49.204;10.652;2023-12-20T13:14:33;6.00;;;3.40;;
14394;SDS011;7282;49.204;10.652;2023-12-20T13:17:03;5.33;;;3.37;;
14394;SDS011;7282;49.204;10.652;2023-12-20T13:19:30;5.20;;;3.43;;
14394;SDS011;7282;49.204;10.652;2023-12-20T13:21:57;5.47;;;3.10;;
14394;SDS011;7282;49.204;10.652;2023-12-20T13:24:25;4.97;;;3.47;;
14394;SDS011;7282;49.204;10.652;2023-12-20T13:26:55;4.20;;;3.10;;
14394;SDS011;7282;49.204;10.652;2023-12-20T13:29:22;5.73;;;2.90;;
14394;SDS011;7282;49.204;10.652;2023-12-20T13:31:48;7.70;;;3.23;;
14394;SDS011;7282;49.204;10.652;2023-12-20T13:34:15;7.93;;;3.30;;
14394;SDS011;7282;49.204;10.652;2023-12-20T13:36:43;7.97;;;3.03;;
14394;SDS011;7282;49.204;10.652;2023-12-20T13:39:11;5.03;;;2.73;;
14394;SDS011;7282;49.204;10.652;2023-12-20T13:41:38;6.50;;;2.70;;
14394;SDS011;7282;49.204;10.652;2023-12-20T13:44:05;5.93;;;2.80;;
14394;SDS011;7282;49.204;10.652;2023-12-20T13:46:32;4.27;;;2.87;;
14394;SDS011;7282;49.204;10.652;2023-12-20T13:48:58;5.10;;;2.80;;
14394;SDS011;7282;49.204;10.652;2023-12-20T13:51:25;5.87;;;3.10;;
14394;SDS011;7282;49.204;10.652;2023-12-20T13:53:52;7.80;;;3.10;;
14394;SDS011;7282;49.204;10.652;2023-12-20T13:56:19;4.20;;;2.97;;
14394;SDS011;7282;49.204;10.652;2023-12-20T13:58:46;6.87;;;3.50;;
14394;SDS011;7282;49.204;10.652;2023-12-20T14:01:13;5.13;;;3.10;;
14394;SDS011;7282;49.204;10.652;2023-12-20T14:03:39;6.07;;;3.20;;
14394;SDS011;7282;49.204;10.652;2023-12-20T14:06:07;5.17;;;3.80;;
14394;SDS011;7282;49.204;10.652;2023-12-20T14:08:34;6.27;;;3.60;;
14394;SDS011;7282;49.204;10.652;2023-12-20T14:11:02;9.50;;;3.33;;
14394;SDS011;7282;49.204;10.652;2023-12-20T14:13:28;9.40;;;3.20;;
14394;SDS011;7282;49.204;10.652;2023-12-20T14:15:55;5.23;;;3.00;;
14394;SDS011;7282;49.204;10.652;2023-12-20T14:18:22;5.80;;;3.50;;
14394;SDS011;7282;49.204;10.652;2023-12-20T14:20:49;6.37;;;3.47;;
14394;SDS011;7282;49.204;10.652;2023-12-20T14:23:16;5.00;;;3.37;;
14394;SDS011;7282;49.204;10.652;2023-12-20T14:25:43;5.33;;;3.30;;
14394;SDS011;7282;49.204;10.652;2023-12-20T14:28:14;5.87;;;4.00;;
14394;SDS011;7282;49.204;10.652;2023-12-20T14:30:40;6.77;;;3.73;;
14394;SDS011;7282;49.204;10.652;2023-12-20T14:33:07;6.33;;;3.80;;
14394;SDS011;7282;49.204;10.652;2023-12-20T14:35:34;6.33;;;4.07;;
14394;SDS011;7282;49.204;10.652;2023-12-20T14:38:00;8.97;;;4.30;;
14394;SDS011;7282;49.204;10.652;2023-12-20T14:40:27;8.53;;;4.53;;
14394;SDS011;7282;49.204;10.652;2023-12-20T14:42:54;4.47;;;3.93;;
14394;SDS011;7282;49.204;10.652;2023-12-20T14:45:20;8.00;;;5.20;;